Time;durP1;ratioP1;P1;durP2;ratioP2;P2;SDS_P1;SDS_P2;PMS_P1;PMS_P2;Temp;Humidity;BMP_temperature;BMP_pressure;BME280_temperature;BME280_humidity;BME280_pressure;Samples;Min_cycle;Max_cycle;Signal;HPM_P1;HPM_P2
2022/10/01 00:00:50;;;;;;;9.00;6.07;;;;;;;13.89;100.00;93543.47;5090065;28;20089;-70
2022/10/01 00:03:17;;;;;;;7.20;5.40;;;;;;;13.92;100.00;93536.28;5089673;28;20123;-70
2022/10/01 00:05:44;;;;;;;11.55;5.65;;;;;;;13.91;100.00;93543.25;5089943;28;20040;-70
2022/10/01 00:08:13;;;;;;;9.05;5.57;;;;;;;13.87;100.00;93536.94;5089815;28;20434;-70
2022/10/01 00:10:41;;;;;;;7.85;5.55;;;;;;;13.76;100.00;93541.84;5089937;28;20040;-70
2022/10/01 00:13:08;;;;;;;11.57;6.25;;;;;;;13.67;100.00;93532.88;5089560;28;20491;-71
2022/10/01 00:15:35;;;;;;;9.82;5.75;;;;;;;13.71;100.00;93544.31;5089576;28;20068;-70
2022/10/01 00:18:03;;;;;;;11.05;6.40;;;;;;;13.73;100.00;93536.34;5089706;28;20040;-71
2022/10/01 00:20:30;;;;;;;8.52;5.60;;;;;;;13.70;100.00;93534.22;5091123;28;20503;-71
2022/10/01 00:22:57;;;;;;;9.68;5.78;;;;;;;13.74;100.00;93538.72;5089657;28;20036;-71
2022/10/01 00:25:24;;;;;;;10.13;6.05;;;;;;;13.75;100.00;93537.69;5089590;28;20044;-71
2022/10/01 00:27:51;;;;;;;9.80;6.43;;;;;;;13.77;100.00;93540.06;5089591;28;20040;-70
2022/10/01 00:30:18;;;;;;;10.50;6.22;;;;;;;13.77;100.00;93534.91;5089239;28;20100;-70
2022/10/01 00:32:45;;;;;;;8.10;5.57;;;;;;;13.78;100.00;93528.72;5089504;28;20044;-70
2022/10/01 00:35:13;;;;;;;12.68;6.13;;;;;;;13.74;100.00;93535.34;5089139;28;20044;-70
2022/10/01 00:37:41;;;;;;;7.93;5.93;;;;;;;13.75;100.00;93524.78;5088306;28;20035;-71
2022/10/01 00:40:09;;;;;;;9.18;5.45;;;;;;;13.72;100.00;93529.63;5089236;28;20066;-70
2022/10/01 00:42:35;;;;;;;9.75;6.40;;;;;;;13.70;100.00;93529.81;5088884;28;20556;-70
2022/10/01 00:45:02;;;;;;;11.30;7.10;;;;;;;13.68;100.00;93537.00;5089445;28;20049;-70
2022/10/01 00:47:35;;;;;;;9.80;6.38;;;;;;;13.66;100.00;93530.50;5089247;28;20044;-70
2022/10/01 00:50:07;;;;;;;7.45;5.60;;;;;;;13.67;100.00;93538.03;5088831;28;20043;-70
2022/10/01 00:52:40;;;;;;;9.93;6.15;;;;;;;13.65;100.00;93534.09;5088960;28;20548;-70
2022/10/01 00:55:10;;;;;;;10.85;6.28;;;;;;;13.62;100.00;93536.09;5089028;28;20449;-70
2022/10/01 00:57:39;;;;;;;9.07;6.20;;;;;;;13.61;100.00;93537.09;5089080;28;20127;-70
2022/10/01 01:00:08;;;;;;;10.00;6.65;;;;;;;13.63;100.00;93535.09;5089047;28;20048;-70
2022/10/01 01:02:35;;;;;;;11.40;6.88;;;;;;;13.59;100.00;93525.41;5088880;28;20082;-70
2022/10/01 01:05:02;;;;;;;9.80;6.35;;;;;;;13.43;100.00;93503.59;5088861;28;20392;-70
2022/10/01 01:07:31;;;;;;;12.32;7.10;;;;;;;13.61;100.00;93516.44;5088915;28;20043;-71
2022/10/01 01:10:00;;;;;;;11.73;6.40;;;;;;;13.60;100.00;93512.31;5089024;28;20104;-70
2022/10/01 01:12:38;;;;;;;12.60;6.55;;;;;;;13.58;100.00;93519.50;5088643;28;20044;-70
2022/10/01 01:15:15;;;;;;;13.45;6.72;;;;;;;13.49;100.00;93510.47;5088621;28;20487;-70
2022/10/01 01:17:51;;;;;;;11.95;7.10;;;;;;;13.42;100.00;93510.53;5088492;28;20483;-70
2022/10/01 01:20:32;;;;;;;9.77;7.38;;;;;;;13.41;100.00;93513.31;5090674;28;20403;-70
2022/10/01 01:23:10;;;;;;;12.65;7.75;;;;;;;13.34;100.00;93503.88;5088427;28;20035;-70
2022/10/01 01:25:46;;;;;;;13.48;9.32;;;;;;;13.28;100.00;93501.41;5088825;28;20101;-70
2022/10/01 01:28:22;;;;;;;14.68;9.32;;;;;;;13.25;100.00;93499.25;5088548;28;20082;-71
2022/10/01 01:30:53;;;;;;;12.45;8.70;;;;;;;13.26;100.00;93509.38;5088433;28;20048;-71
2022/10/01 01:33:22;;;;;;;12.00;8.77;;;;;;;13.27;100.00;93512.72;5088723;28;20040;-70
2022/10/01 01:35:53;;;;;;;13.95;8.88;;;;;;;13.23;100.00;93508.00;5092518;28;20448;-70
2022/10/01 01:38:26;;;;;;;13.95;8.40;;;;;;;13.27;100.00;93517.88;5129817;28;20043;-69
2022/10/01 01:40:55;;;;;;;12.07;8.50;;;;;;;13.26;100.00;93516.31;5129624;28;20130;-70
2022/10/01 01:43:28;;;;;;;11.52;8.27;;;;;;;13.26;100.00;93519.69;5129855;28;20448;-70
2022/10/01 01:45:55;;;;;;;11.23;7.78;;;;;;;13.25;100.00;93517.31;5129882;28;20049;-70
2022/10/01 01:48:23;;;;;;;11.45;7.60;;;;;;;13.10;100.00;93498.63;5130335;27;20092;-70
2022/10/01 01:50:54;;;;;;;11.00;8.20;;;;;;;13.20;100.00;93511.00;5134202;27;20051;-70
2022/10/01 01:53:21;;;;;;;25.38;14.55;;;;;;;13.18;100.00;93509.66;5133944;27;20050;-70
2022/10/01 01:55:49;;;;;;;37.78;21.27;;;;;;;13.18;100.00;93517.38;5133981;27;20047;-70
2022/10/01 01:58:16;;;;;;;33.60;20.17;;;;;;;13.15;100.00;93523.00;5133817;27;20042;-69
2022/10/01 02:00:46;;;;;;;35.97;20.27;;;;;;;13.14;100.00;93535.09;5133780;27;20051;-70
2022/10/01 02:03:12;;;;;;;38.42;20.40;;;;;;;13.12;100.00;93544.06;5133311;27;20846;-70
2022/10/01 02:05:49;;;;;;;35.30;16.10;;;;;;;13.10;100.00;93547.63;5133472;27;20096;-70
2022/10/01 02:08:36;;;;;;;13.18;9.82;;;;;;;13.08;100.00;93552.25;5133372;27;20047;-70
2022/10/01 02:11:16;;;;;;;21.92;12.90;;;;;;;12.74;100.00;93546.66;5133468;27;20039;-70
2022/10/01 02:13:50;;;;;;;89.63;38.10;;;;;;;12.72;100.00;93558.19;5133204;27;20433;-69
2022/10/01 02:16:26;;;;;;;76.97;33.70;;;;;;;12.57;100.00;93569.63;5133211;27;20051;-70
2022/10/01 02:19:01;;;;;;;33.80;19.15;;;;;;;12.57;100.00;93579.91;5103810;27;20051;-70
2022/10/01 02:21:32;;;;;;;77.20;38.08;;;;;;;12.52;100.00;93569.47;5121544;27;20054;-70
2022/10/01 02:24:04;;;;;;;60.80;31.75;;;;;;;12.62;100.00;93563.81;5133233;27;20047;-70
2022/10/01 02:26:32;;;;;;;43.53;23.02;;;;;;;12.70;100.00;93564.31;5133465;27;20092;-70
2022/10/01 02:29:03;;;;;;;49.95;25.42;;;;;;;12.80;100.00;93563.84;5132995;27;20051;-70
2022/10/01 02:31:32;;;;;;;35.40;21.85;;;;;;;12.89;100.00;93559.19;5133448;27;20039;-70
2022/10/01 02:34:02;;;;;;;38.53;21.35;;;;;;;12.92;100.00;93557.97;5133205;27;20047;-69
2022/10/01 02:36:30;;;;;;;37.80;21.73;;;;;;;13.05;100.00;93569.94;5133454;27;20439;-69
2022/10/01 02:38:59;;;;;;;37.05;19.58;;;;;;;13.09;100.00;93564.13;5132724;27;20552;-69
2022/10/01 02:41:31;;;;;;;31.40;16.65;;;;;;;13.16;100.00;93571.78;5132553;27;20514;-69
2022/10/01 02:44:02;;;;;;;27.70;15.45;;;;;;;13.23;100.00;93566.53;5133025;27;20051;-70
2022/10/01 02:46:33;;;;;;;23.77;13.57;;;;;;;13.24;100.00;93562.94;5132927;27;20392;-70
2022/10/01 02:49:01;;;;;;;22.98;13.90;;;;;;;13.32;100.00;93572.97;5132685;27;20088;-70
2022/10/01 02:51:43;;;;;;;23.25;13.77;;;;;;;13.32;100.00;93569.59;5132493;27;20086;-70
2022/10/01 02:54:15;;;;;;;18.48;11.45;;;;;;;13.34;100.00;93572.78;5132540;27;20051;-70
2022/10/01 02:59:26;;;;;;;19.75;10.63;;;;;;;13.36;100.00;93563.81;5132427;27;20062;-70
2022/10/01 03:01:55;;;;;;;18.30;10.40;;;;;;;13.43;100.00;93565.50;5131451;27;20051;-70
2022/10/01 03:04:21;;;;;;;19.23;10.00;;;;;;;13.48;100.00;93561.28;5132668;27;20043;-70
2022/10/01 03:06:48;;;;;;;18.17;10.98;;;;;;;13.51;100.00;93567.03;5132296;27;20043;-70
2022/10/01 03:09:15;;;;;;;20.60;10.77;;;;;;;13.55;100.00;93563.78;5132516;27;20043;-70
2022/10/01 03:11:42;;;;;;;13.60;9.27;;;;;;;13.56;100.00;93565.38;5132443;27;20103;-71
2022/10/01 03:14:10;;;;;;;16.50;9.77;;;;;;;13.58;100.00;93562.56;5132169;27;20088;-70
2022/10/01 03:16:37;;;;;;;14.45;9.20;;;;;;;13.58;100.00;93565.94;5132351;27;20089;-70
2022/10/01 03:19:05;;;;;;;15.40;9.13;;;;;;;13.62;100.00;93571.47;5129202;27;20093;-70
2022/10/01 03:21:32;;;;;;;16.90;9.52;;;;;;;13.61;100.00;93578.41;5120913;27;20495;-70
2022/10/01 03:23:58;;;;;;;13.18;7.80;;;;;;;13.65;100.00;93589.06;5132185;27;20050;-70
2022/10/01 03:26:25;;;;;;;11.18;7.93;;;;;;;13.70;100.00;93591.78;5131948;27;20035;-70
2022/10/01 03:28:52;;;;;;;13.77;7.70;;;;;;;13.73;100.00;93588.78;5131871;27;20047;-70
2022/10/01 03:31:18;;;;;;;13.38;7.20;;;;;;;13.75;100.00;93581.59;5131788;27;20039;-70
2022/10/01 03:33:45;;;;;;;11.50;7.80;;;;;;;13.78;100.00;93570.03;5132083;27;20050;-71
2022/10/01 03:36:14;;;;;;;13.25;7.10;;;;;;;13.81;100.00;93566.22;5131713;27;20043;-71
2022/10/01 03:38:40;;;;;;;11.05;6.10;;;;;;;13.85;100.00;93555.22;5131735;27;20419;-71
2022/10/01 03:41:07;;;;;;;10.20;7.03;;;;;;;13.88;100.00;93544.47;5131521;27;20055;-70
2022/10/01 03:43:34;;;;;;;8.50;6.50;;;;;;;13.88;100.00;93546.25;5131563;27;20054;-71
2022/10/01 03:46:01;;;;;;;7.15;5.55;;;;;;;13.93;100.00;93543.78;5119452;27;20043;-70
2022/10/01 03:48:29;;;;;;;9.05;5.63;;;;;;;13.93;100.00;93524.94;5103112;28;20054;-71
2022/10/01 03:50:57;;;;;;;11.55;6.07;;;;;;;14.04;100.00;93521.59;5119019;27;20081;-70
2022/10/01 03:53:26;;;;;;;9.20;5.95;;;;;;;14.09;100.00;93511.38;5108669;27;20043;-70
2022/10/01 03:55:53;;;;;;;12.25;6.47;;;;;;;14.07;100.00;93497.88;5121123;27;20101;-70
2022/10/01 03:58:20;;;;;;;12.32;6.43;;;;;;;14.21;100.00;93495.09;5090169;28;20081;-70
2022/10/01 04:00:47;;;;;;;10.63;5.88;;;;;;;14.23;100.00;93519.69;5090060;28;20047;-70
2022/10/01 04:03:14;;;;;;;11.57;6.40;;;;;;;14.27;100.00;93517.44;5090273;28;20462;-71
2022/10/01 04:05:42;;;;;;;9.32;6.30;;;;;;;14.35;100.00;93537.00;5112061;27;20093;-70
2022/10/01 04:08:08;;;;;;;11.43;6.65;;;;;;;14.35;100.00;93530.03;5109730;27;20039;-71
2022/10/01 04:10:37;;;;;;;9.93;5.97;;;;;;;14.41;100.00;93538.69;5126014;27;20039;-71
2022/10/01 04:13:04;;;;;;;10.27;6.53;;;;;;;14.39;100.00;93530.34;5096984;27;20542;-70
2022/10/01 04:15:32;;;;;;;11.57;5.97;;;;;;;14.35;100.00;93524.84;5127062;27;20039;-71
2022/10/01 04:18:00;;;;;;;9.52;5.80;;;;;;;14.39;100.00;93533.72;5101601;28;20054;-70
2022/10/01 04:20:27;;;;;;;9.45;6.38;;;;;;;14.41;100.00;93531.69;5096854;27;20055;-70
2022/10/01 04:22:53;;;;;;;12.35;5.80;;;;;;;14.45;100.00;93539.81;5104746;27;20101;-71
2022/10/01 04:25:20;;;;;;;12.88;7.32;;;;;;;14.46;100.00;93533.63;5099211;28;20039;-71
2022/10/01 04:27:57;;;;;;;11.90;8.15;;;;;;;14.51;100.00;93530.34;5098572;28;20040;-71
2022/10/01 04:30:25;;;;;;;10.25;6.97;;;;;;;14.49;100.00;93529.81;5104223;27;20047;-70
2022/10/01 04:32:52;;;;;;;11.00;7.25;;;;;;;14.39;100.00;93530.34;5108051;27;20084;-70
2022/10/01 04:35:19;;;;;;;8.43;6.35;;;;;;;14.36;100.00;93521.28;5119396;27;20043;-70
2022/10/01 04:37:45;;;;;;;9.73;7.13;;;;;;;14.37;100.00;93529.81;5123781;27;20047;-70
2022/10/01 04:40:12;;;;;;;9.25;6.65;;;;;;;14.37;100.00;93548.69;5130631;27;20100;-70
2022/10/01 04:42:41;;;;;;;8.65;6.05;;;;;;;14.43;100.00;93536.66;5111736;27;20706;-70
2022/10/01 04:45:12;;;;;;;8.23;6.13;;;;;;;14.46;100.00;93540.59;5093462;28;20040;-70
2022/10/01 04:47:39;;;;;;;8.23;5.47;;;;;;;14.50;100.00;93550.28;5089404;28;20059;-71
2022/10/01 04:50:06;;;;;;;8.85;5.40;;;;;;;14.55;100.00;93552.94;5089757;28;20039;-71
2022/10/01 04:52:33;;;;;;;10.13;5.47;;;;;;;14.56;100.00;93569.25;5089405;28;20055;-70
2022/10/01 04:55:00;;;;;;;10.32;6.45;;;;;;;14.62;100.00;93577.91;5093665;27;20108;-70
2022/10/01 04:57:27;;;;;;;8.57;5.78;;;;;;;14.61;100.00;93586.66;5101942;28;20088;-70
2022/10/01 04:59:54;;;;;;;11.15;7.00;;;;;;;14.72;100.00;93593.63;5097767;28;20414;-71
2022/10/01 05:02:22;;;;;;;15.55;7.65;;;;;;;14.82;100.00;93595.69;5091569;28;20104;-70
2022/10/01 05:04:48;;;;;;;13.88;8.93;;;;;;;14.79;100.00;93594.34;5088686;28;20040;-71
2022/10/01 05:07:15;;;;;;;13.55;8.88;;;;;;;14.82;100.00;93606.03;5088792;28;20040;-70
2022/10/01 05:09:42;;;;;;;17.08;9.57;;;;;;;14.66;100.00;93604.88;5088853;28;20044;-70
2022/10/01 05:12:08;;;;;;;17.15;12.27;;;;;;;14.47;100.00;93604.19;5088865;28;20040;-70
2022/10/01 05:14:35;;;;;;;19.50;11.45;;;;;;;14.32;100.00;93608.00;5090967;28;20110;-70
2022/10/01 05:17:02;;;;;;;16.70;9.10;;;;;;;14.17;100.00;93600.69;5107129;28;20297;-70
2022/10/01 05:19:30;;;;;;;13.45;8.20;;;;;;;14.05;100.00;93598.06;5112791;28;20088;-70
2022/10/01 05:21:57;;;;;;;15.80;9.27;;;;;;;14.12;100.00;93593.59;5113640;28;20047;-70
2022/10/01 05:24:24;;;;;;;12.95;9.35;;;;;;;14.17;100.00;93598.09;5132167;27;20457;-70
2022/10/01 05:26:52;;;;;;;15.18;9.38;;;;;;;14.23;100.00;93599.00;5127820;27;20049;-70
2022/10/01 05:29:19;;;;;;;16.85;8.75;;;;;;;14.37;100.00;93607.31;5136964;27;20077;-70
2022/10/01 05:31:46;;;;;;;22.55;8.15;;;;;;;14.52;100.00;93607.69;5137075;27;20606;-69
2022/10/01 05:34:13;;;;;;;16.23;9.35;;;;;;;14.62;100.00;93580.50;5128837;27;20127;-69
2022/10/01 05:36:41;;;;;;;18.17;11.20;;;;;;;14.79;100.00;93554.75;5136631;27;20068;-70
2022/10/01 05:39:08;;;;;;;21.15;9.63;;;;;;;14.93;100.00;93573.41;5136547;27;20047;-70
2022/10/01 05:41:34;;;;;;;19.05;9.40;;;;;;;15.07;100.00;93551.44;5136552;27;20047;-70
2022/10/01 05:44:02;;;;;;;13.02;7.20;;;;;;;15.29;100.00;93558.59;5136609;27;20495;-69
2022/10/01 05:46:30;;;;;;;13.32;6.63;;;;;;;15.47;100.00;93562.03;5137030;27;20043;-69
2022/10/01 05:48:57;;;;;;;9.55;6.13;;;;;;;15.69;100.00;93574.31;5107792;27;20054;-70
2022/10/01 05:51:24;;;;;;;8.68;5.90;;;;;;;15.86;100.00;93577.72;5095065;28;20044;-69
2022/10/01 05:53:53;;;;;;;8.07;4.70;;;;;;;16.11;100.00;93579.19;5095183;28;20640;-69
2022/10/01 05:56:20;;;;;;;9.07;4.93;;;;;;;16.29;100.00;93562.63;5094939;28;20040;-69
2022/10/01 05:58:47;;;;;;;9.45;4.55;;;;;;;16.50;100.00;93573.31;5103997;28;20384;-69
2022/10/01 06:01:14;;;;;;;9.77;4.43;;;;;;;16.71;100.00;93581.34;5094995;28;20047;-69
2022/10/01 06:03:41;;;;;;;10.45;4.78;;;;;;;16.98;100.00;93583.25;5109694;27;20043;-69
2022/10/01 06:06:08;;;;;;;6.88;4.30;;;;;;;17.21;100.00;93592.69;5136962;27;20051;-69
2022/10/01 06:08:35;;;;;;;11.73;4.47;;;;;;;17.44;100.00;93605.63;5136427;27;20045;-69
2022/10/01 06:11:05;;;;;;;8.10;4.35;;;;;;;17.67;100.00;93622.78;5133734;27;20421;-70
2022/10/01 06:13:32;;;;;;;9.63;3.80;;;;;;;17.85;100.00;93636.47;5095395;28;20040;-70
2022/10/01 06:15:58;;;;;;;7.22;3.80;;;;;;;18.09;100.00;93641.44;5102858;27;20039;-70
2022/10/01 06:18:26;;;;;;;7.25;4.18;;;;;;;18.26;100.00;93646.50;5114341;27;20456;-70
2022/10/01 06:20:52;;;;;;;7.13;4.07;;;;;;;18.41;100.00;93645.84;5115330;27;20424;-70
2022/10/01 06:23:19;;;;;;;8.82;3.78;;;;;;;18.56;100.00;93660.78;5135536;27;20495;-69
2022/10/01 06:25:46;;;;;;;6.80;4.00;;;;;;;18.74;100.00;93662.25;5109897;27;20040;-69
2022/10/01 06:28:14;;;;;;;10.00;4.85;;;;;;;18.88;100.00;93657.38;5095802;28;20128;-69
2022/10/01 06:30:41;;;;;;;7.25;4.60;;;;;;;19.05;100.00;93646.06;5135135;27;20534;-69
2022/10/01 06:33:10;;;;;;;8.77;3.17;;;;;;;19.25;100.00;93649.84;5136043;27;20515;-69
2022/10/01 06:35:41;;;;;;;8.63;3.50;;;;;;;19.38;100.00;93651.97;5133018;27;20051;-70
2022/10/01 06:38:08;;;;;;;7.05;3.90;;;;;;;19.46;100.00;93633.25;5100280;27;20510;-69
2022/10/01 06:40:35;;;;;;;12.32;4.45;;;;;;;19.69;98.65;93657.31;5098635;27;20047;-70
2022/10/01 06:43:02;;;;;;;9.73;3.42;;;;;;;19.75;97.79;93648.47;5125268;27;20047;-69
2022/10/01 06:45:31;;;;;;;10.15;4.30;;;;;;;19.77;96.78;93624.75;5106903;27;20072;-69
2022/10/01 06:48:01;;;;;;;8.02;3.60;;;;;;;19.95;96.30;93646.19;5106339;27;20113;-69
2022/10/01 06:50:28;;;;;;;10.57;3.67;;;;;;;19.84;95.45;93621.91;5124659;27;20062;-69
2022/10/01 06:52:56;;;;;;;11.57;3.83;;;;;;;20.06;95.08;93631.34;5106247;27;20070;-69
2022/10/01 06:55:27;;;;;;;17.30;3.75;;;;;;;20.08;94.18;93632.66;5132769;27;20079;-70
2022/10/01 06:57:55;;;;;;;12.77;4.35;;;;;;;20.16;95.23;93639.19;5132650;27;20150;-70
2022/10/01 07:00:23;;;;;;;13.18;4.05;;;;;;;20.24;94.92;93664.00;5132559;27;20053;-70
2022/10/01 07:02:51;;;;;;;11.68;3.80;;;;;;;20.38;95.38;93666.88;5132132;27;20103;-69
2022/10/01 07:05:18;;;;;;;9.90;3.65;;;;;;;20.52;93.61;93685.41;5132640;27;20050;-69
2022/10/01 07:07:44;;;;;;;11.50;3.80;;;;;;;20.70;93.00;93697.94;5128749;27;20491;-69
2022/10/01 07:10:12;;;;;;;9.93;3.45;;;;;;;20.90;93.19;93696.41;5098649;27;20039;-69
2022/10/01 07:12:39;;;;;;;8.98;3.50;;;;;;;21.09;91.51;93694.03;5132539;27;20444;-69
2022/10/01 07:15:07;;;;;;;9.43;3.20;;;;;;;21.17;89.92;93682.28;5132064;27;20053;-69
2022/10/01 07:17:34;;;;;;;9.48;3.63;;;;;;;21.40;89.52;93701.03;5132368;27;20059;-69
2022/10/01 07:20:02;;;;;;;9.20;3.28;;;;;;;21.50;87.16;93700.22;5107225;27;20116;-69
2022/10/01 07:22:29;;;;;;;10.35;3.25;;;;;;;21.61;87.71;93693.91;5128926;27;20062;-70
2022/10/01 07:24:56;;;;;;;9.60;3.58;;;;;;;21.75;88.64;93690.75;5126553;27;20503;-70
2022/10/01 07:27:22;;;;;;;11.82;3.80;;;;;;;21.81;87.99;93679.25;5127519;27;20096;-70
2022/10/01 07:29:49;;;;;;;10.05;3.85;;;;;;;21.93;87.72;93668.44;5132320;27;20043;-70
2022/10/01 07:32:16;;;;;;;7.72;3.35;;;;;;;22.00;84.61;93679.38;5131745;27;20096;-70
2022/10/01 07:34:43;;;;;;;11.02;3.63;;;;;;;22.09;85.50;93690.09;5117590;27;20051;-70
2022/10/01 07:37:11;;;;;;;11.10;3.33;;;;;;;22.18;84.85;93684.28;5132125;27;20043;-70
2022/10/01 07:39:37;;;;;;;7.05;3.03;;;;;;;22.15;83.97;93682.97;5131629;27;20106;-70
2022/10/01 07:42:04;;;;;;;8.73;3.63;;;;;;;22.23;84.60;93694.72;5131671;27;20051;-70
2022/10/01 07:44:32;;;;;;;9.85;3.22;;;;;;;22.24;84.36;93697.06;5117857;27;20123;-70
2022/10/01 07:46:58;;;;;;;5.72;3.35;;;;;;;22.20;83.41;93706.50;5101218;27;20047;-70
2022/10/01 07:49:25;;;;;;;6.50;2.50;;;;;;;22.08;83.49;93701.59;5115252;27;20040;-70
2022/10/01 07:51:54;;;;;;;7.53;2.53;;;;;;;22.18;82.42;93705.22;5114989;27;20092;-70
2022/10/01 07:54:22;;;;;;;5.95;2.35;;;;;;;22.04;81.68;93700.56;5131300;27;20043;-70
2022/10/01 07:56:54;;;;;;;4.53;2.72;;;;;;;21.96;82.26;93690.66;5131404;27;20096;-71
2022/10/01 07:59:21;;;;;;;4.50;2.72;;;;;;;21.93;82.76;93694.59;5131645;27;20538;-70
2022/10/01 08:01:48;;;;;;;8.30;2.90;;;;;;;21.86;83.23;93684.41;5130808;27;20055;-70
2022/10/01 08:06:59;;;;;;;7.82;4.00;;;;;;;21.59;84.78;93671.69;5131162;27;20050;-70
2022/10/01 08:09:27;;;;;;;7.40;3.42;;;;;;;21.54;85.05;93669.09;5131456;27;20082;-70
2022/10/01 08:11:54;;;;;;;9.02;4.90;;;;;;;21.54;85.57;93669.91;5127552;27;20054;-70
2022/10/01 08:14:21;;;;;;;8.93;5.30;;;;;;;21.45;85.99;93672.28;5131197;27;20084;-70
2022/10/01 08:16:48;;;;;;;7.15;3.65;;;;;;;21.41;86.79;93660.00;5130819;27;20051;-69
2022/10/01 08:19:15;;;;;;;13.85;3.50;;;;;;;21.34;86.02;93662.91;5126391;27;20452;-70
2022/10/01 08:21:42;;;;;;;4.57;3.03;;;;;;;21.25;87.60;93669.72;5121072;27;20058;-70
2022/10/01 08:24:09;;;;;;;10.52;4.93;;;;;;;21.12;88.04;93664.00;5115925;27;20441;-70
2022/10/01 08:26:37;;;;;;;9.15;5.57;;;;;;;21.04;88.34;93664.53;5121925;27;20096;-70
2022/10/01 08:29:04;;;;;;;8.80;5.35;;;;;;;20.92;89.46;93675.25;5130774;27;20092;-70
2022/10/01 08:31:31;;;;;;;6.63;3.72;;;;;;;20.87;89.67;93677.88;5130660;27;20091;-70
2022/10/01 08:33:58;;;;;;;7.03;3.47;;;;;;;20.74;89.57;93669.47;5130413;27;20100;-70
2022/10/01 08:36:24;;;;;;;7.78;2.95;;;;;;;20.53;89.94;93653.84;5130589;27;20490;-70
2022/10/01 08:38:51;;;;;;;9.50;3.45;;;;;;;20.53;91.67;93653.84;5130536;27;20096;-70
2022/10/01 08:41:29;;;;;;;7.78;3.05;;;;;;;20.52;91.33;93654.91;5130382;27;20039;-70
2022/10/01 08:43:57;;;;;;;8.30;2.95;;;;;;;20.35;91.73;93649.91;5130386;27;20047;-71
2022/10/01 08:46:30;;;;;;;9.27;3.33;;;;;;;20.34;93.01;93658.00;5130220;27;20126;-71
2022/10/01 08:49:03;;;;;;;12.35;5.07;;;;;;;20.27;94.35;93655.66;5130502;27;20051;-71
2022/10/01 08:51:38;;;;;;;11.82;3.45;;;;;;;20.15;94.43;93663.72;5116084;27;20047;-70
2022/10/01 08:54:17;;;;;;;12.90;4.55;;;;;;;19.90;93.05;93678.22;5130376;27;20414;-71
2022/10/01 08:56:46;;;;;;;13.55;5.78;;;;;;;19.96;98.08;93685.06;5116161;27;20047;-71
2022/10/01 08:59:29;;;;;;;27.50;12.65;;;;;;;20.00;100.00;93693.16;5129569;27;20536;-70
2022/10/01 09:01:57;;;;;;;14.02;5.53;;;;;;;20.01;100.00;93702.53;5129914;27;20062;-71
2022/10/01 09:04:25;;;;;;;11.52;5.72;;;;;;;19.89;100.00;93693.09;5130374;27;20282;-71
2022/10/01 09:07:00;;;;;;;7.80;4.00;;;;;;;19.67;100.00;93698.47;5130181;27;20043;-71
2022/10/01 09:09:41;;;;;;;10.52;4.63;;;;;;;19.64;100.00;93712.03;5124875;27;20043;-71
2022/10/01 09:12:25;;;;;;;11.85;6.55;;;;;;;19.55;100.00;93721.34;5103646;27;20452;-70
2022/10/01 09:15:08;;;;;;;9.00;4.40;;;;;;;19.44;100.00;93734.31;5130106;27;20043;-71
2022/10/01 09:17:54;;;;;;;16.50;5.00;;;;;;;19.35;100.00;93741.81;5129972;27;20047;-71
2022/10/01 09:20:25;;;;;;;;;;;;;;;19.26;100.00;93747.75;5116786;27;20043;-71
2022/10/01 09:23:04;;;;;;;10.52;4.13;;;;;;;19.15;100.00;93746.88;5115808;28;19973;-71
2022/10/01 09:25:35;;;;;;;15.43;7.95;;;;;;;19.03;100.00;93752.25;5119863;28;20400;-71
2022/10/01 09:28:12;;;;;;;9.02;5.57;;;;;;;19.01;100.00;93759.50;5103097;28;20064;-71
2022/10/01 09:30:45;;;;;;;12.95;6.28;;;;;;;18.92;100.00;93767.78;5096635;28;20044;-71
2022/10/01 09:33:16;;;;;;;12.07;7.28;;;;;;;18.84;100.00;93768.22;5096411;28;20069;-71
2022/10/01 09:35:48;;;;;;;11.80;7.20;;;;;;;18.81;100.00;93766.13;5107943;28;20047;-71
2022/10/01 09:38:21;;;;;;;9.80;6.45;;;;;;;18.72;100.00;93765.81;5099858;28;20052;-71
2022/10/01 09:40:53;;;;;;;12.23;5.47;;;;;;;18.73;100.00;93769.16;5103840;28;20040;-72
2022/10/01 09:43:22;;;;;;;11.18;4.38;;;;;;;18.55;100.00;93750.28;5109011;28;20425;-71
2022/10/01 09:45:51;;;;;;;10.40;3.95;;;;;;;18.45;100.00;93740.56;5109504;28;20052;-71
2022/10/01 09:48:29;;;;;;;8.60;3.97;;;;;;;18.40;100.00;93722.31;5091857;28;20056;-71
2022/10/01 09:51:01;;;;;;;7.00;3.58;;;;;;;18.12;100.00;93685.13;5130329;28;20153;-71
2022/10/01 09:53:34;;;;;;;7.15;3.38;;;;;;;18.01;100.00;93679.78;5129696;28;20051;-70
2022/10/01 09:56:10;;;;;;;6.72;3.40;;;;;;;17.83;100.00;93656.72;5129897;28;20436;-71
2022/10/01 09:58:40;;;;;;;5.60;3.38;;;;;;;17.83;100.00;93683.47;5129751;28;20047;-72
2022/10/01 10:01:20;;;;;;;22.60;10.77;;;;;;;17.35;100.00;93673.59;5129924;28;20051;-71
2022/10/01 10:03:54;;;;;;;49.58;20.17;;;;;;;17.03;100.00;93681.97;5129439;28;20047;-71
2022/10/01 10:06:26;;;;;;;12.27;4.72;;;;;;;16.89;100.00;93711.84;5129518;28;20119;-71
2022/10/01 10:08:54;;;;;;;7.15;3.58;;;;;;;16.81;100.00;93734.56;5129608;28;20047;-71
2022/10/01 10:11:24;;;;;;;6.43;3.63;;;;;;;17.04;100.00;93747.66;5127926;27;20086;-71
2022/10/01 10:13:52;;;;;;;6.50;3.55;;;;;;;17.04;100.00;93734.69;5133670;27;20380;-71
2022/10/01 10:16:25;;;;;;;7.22;4.30;;;;;;;17.07;100.00;93716.81;5133705;27;20047;-71
2022/10/01 10:18:55;;;;;;;6.95;3.63;;;;;;;17.09;100.00;93698.44;5132305;27;20415;-71
2022/10/01 10:21:24;;;;;;;6.82;3.10;;;;;;;17.19;100.00;93695.19;5121621;27;20043;-71
2022/10/01 10:23:53;;;;;;;6.13;3.25;;;;;;;17.33;100.00;93700.81;5133491;27;20050;-71
2022/10/01 10:26:22;;;;;;;5.20;3.05;;;;;;;17.42;100.00;93703.78;5123183;27;20046;-71
2022/10/01 10:28:48;;;;;;;4.90;2.58;;;;;;;17.46;100.00;93697.09;5133250;27;20543;-71
2022/10/01 10:31:17;;;;;;;5.30;2.60;;;;;;;17.53;100.00;93708.09;5132831;27;20088;-71
2022/10/01 10:33:56;;;;;;;6.00;3.00;;;;;;;17.56;100.00;93710.22;5133207;27;20043;-71
2022/10/01 10:36:28;;;;;;;5.70;2.60;;;;;;;17.61;100.00;93702.50;5132956;27;20050;-71
2022/10/01 10:38:56;;;;;;;8.45;3.00;;;;;;;17.67;100.00;93690.31;5132708;27;20054;-70
2022/10/01 10:41:25;;;;;;;5.70;2.42;;;;;;;17.67;100.00;93692.16;5132663;27;20035;-71
2022/10/01 10:43:56;;;;;;;5.30;2.50;;;;;;;17.73;100.00;93698.97;5132741;27;20522;-71
2022/10/01 10:46:30;;;;;;;5.30;2.53;;;;;;;17.76;100.00;93693.28;5132983;27;20118;-71
2022/10/01 10:49:05;;;;;;;7.75;2.88;;;;;;;17.80;100.00;93683.19;5132526;27;20053;-71
2022/10/01 10:51:48;;;;;;;4.60;2.45;;;;;;;17.84;100.00;93689.47;5132877;27;20042;-71
2022/10/01 10:54:20;;;;;;;4.63;2.38;;;;;;;17.88;100.00;93674.97;5119866;27;20449;-71
2022/10/01 10:57:01;;;;;;;5.13;2.03;;;;;;;17.85;100.00;93672.84;5132263;27;20051;-71
2022/10/01 10:59:30;;;;;;;5.22;1.80;;;;;;;17.86;100.00;93643.25;5132934;27;20047;-71
2022/10/01 11:01:57;;;;;;;4.05;1.88;;;;;;;17.81;100.00;93630.97;5131859;27;20047;-71
2022/10/01 11:04:35;;;;;;;2.92;1.55;;;;;;;17.84;100.00;93633.09;5132437;27;20092;-71
2022/10/01 11:07:03;;;;;;;5.85;2.00;;;;;;;17.84;100.00;93601.94;5132244;27;20815;-71
2022/10/01 11:09:42;;;;;;;4.93;1.70;;;;;;;17.61;100.00;93553.63;5125328;27;20071;-71
2022/10/01 11:12:17;;;;;;;5.53;1.50;;;;;;;17.79;100.00;93585.50;5091428;28;20083;-70
2022/10/01 11:14:56;;;;;;;4.13;1.80;;;;;;;17.85;100.00;93572.31;5129777;27;20411;-71
2022/10/01 11:17:50;;;;;;;6.82;3.60;;;;;;;17.95;100.00;93570.84;5132185;27;20051;-70
2022/10/01 11:20:32;;;;;;;21.52;13.80;;;;;;;17.97;100.00;93582.53;5118976;27;20058;-71
2022/10/01 11:23:18;;;;;;;25.77;15.15;;;;;;;17.99;100.00;93580.50;5105352;27;20054;-70
2022/10/01 11:25:52;;;;;;;14.93;9.57;;;;;;;17.98;100.00;93581.53;5121740;27;20048;-71
2022/10/01 11:28:37;;;;;;;7.22;3.53;;;;;;;17.93;100.00;93580.69;5132139;27;20096;-70
2022/10/01 11:31:14;;;;;;;5.43;2.67;;;;;;;17.91;100.00;93560.13;5132170;27;20039;-70
2022/10/01 11:33:50;;;;;;;5.53;2.35;;;;;;;17.95;100.00;93566.41;5131854;27;20088;-70
2022/10/01 11:36:27;;;;;;;8.07;2.25;;;;;;;18.01;100.00;93552.41;5100046;27;20120;-70
2022/10/01 11:38:59;;;;;;;4.35;2.67;;;;;;;18.08;100.00;93544.47;5126895;27;20047;-71